Latest Weather Observations for Renmark Airport

IDS60801

Issued at 4:31 am CDT Wednesday 13 November 2019 (issued every 10 minutes, with the page automatically refreshed every 10 minutes)

About weather observations | Map of weather stations | Latest weather observations for SA | Other Formats
Station Details ID: 024048 Name: RENMARK AERO Lat: -34.20 Lon: 140.68 Height: 31.5 m
Data from the previous 72 hours. | See also: Recent months at Renmark Airport
Date/Time
CDT
Temp
°C
App
Temp
°C
Dew
Point
°C
Rel
Hum
%
Delta-T
°C
Wind Press
QNH
hPa
Press
MSL
hPa
Rain since
9am
mm
Dir  Spd
km/h
Gust
km/h
Spd
kts
Gust
kts
13/04:30am 10.3 6.5 3.8 64 2.9 WSW 13 19 7 10 1021.0 1020.9 0.0
13/04:00am 11.2 7.4 4.0 61 3.2 WSW 13 19 7 10 1021.0 1020.9 0.0
13/03:30am 11.1 7.4 4.6 64 2.9 WSW 13 19 7 10 1021.5 1021.4 0.0
13/03:00am 10.7 7.4 4.6 66 2.7 W 11 17 6 9 1021.5 1021.4 0.0
13/02:30am 10.1 7.1 4.3 67 2.6 W 9 11 5 6 1021.5 1021.4 0.0
13/02:00am 9.5 6.8 3.7 67 2.5 W 7 11 4 6 1021.8 1021.7 0.0
13/01:30am 10.5 7.5 4.0 64 2.9 WSW 9 11 5 6 1021.9 1021.8 0.0
13/01:00am 11.2 7.8 4.0 61 3.2 WSW 11 15 6 8 1022.2 1022.1 0.0
13/12:30am 11.5 7.7 3.8 59 3.4 SW 13 20 7 11 1022.2 1022.1 0.0
13/12:00am 12.1 7.9 3.6 56 3.8 SW 15 22 8 12 1022.2 1022.1 0.0
 
Date/Time
CDT
Temp
°C
App
Temp
°C
Dew
Point
°C
Rel
Hum
%
Delta-T
°C
Wind Press
QNH
hPa
Press
MSL
hPa
Rain since
9am
mm
Dir  Spd
km/h
Gust
km/h
Spd
kts
Gust
kts
12/11:30pm 12.6 7.6 3.6 54 4.0 SW 19 28 10 15 1022.0 1021.9 0.0
12/11:00pm 12.8 8.1 2.9 51 4.4 SSW 17 28 9 15 1021.9 1021.8 0.0
12/10:30pm 13.2 8.0 3.3 51 4.4 SW 20 33 11 18 1021.8 1021.7 0.0
12/10:00pm 13.5 7.9 3.3 50 4.6 SSW 22 33 12 18 1021.7 1021.6 0.0
12/09:30pm 13.9 7.1 3.1 48 4.8 SSW 28 39 15 21 1021.2 1021.1 0.0
12/09:00pm 14.5 8.4 3.0 46 5.1 SSW 24 37 13 20 1020.5 1020.4 0.0
12/08:30pm 15.2 8.7 2.7 43 5.6 SSW 26 41 14 22 1020.0 1019.9 0.0
12/08:00pm 15.9 8.2 2.3 40 6.1 SSW 32 44 17 24 1019.4 1019.3 0.0
12/07:30pm 16.6 9.2 1.9 37 6.5 SSW 30 43 16 23 1018.9 1018.8 0.0
12/07:00pm 17.3 9.4 1.3 34 7.1 SSW 32 52 17 28 1018.2 1018.1 0.0
12/06:31pm 17.9 9.7 0.6 31 7.6 SSW 33 52 18 28 1017.7 1017.6 0.0
12/06:30pm 17.8 9.2 0.5 31 7.6 SSW 35 52 19 28 1017.7 1017.6 0.0
12/06:00pm 18.9 10.8 -0.5 27 8.4 SSW 32 52 17 28 1017.3 1017.2 0.0
12/05:43pm 19.4 11.4 0.4 28 8.4 SW 32 50 17 27 1017.0 1016.9 0.0
12/05:30pm 19.1 10.7 1.6 31 7.9 SSW 35 50 19 27 1016.6 1016.5 0.0
12/05:00pm 19.9 11.5 1.8 30 8.3 SSW 35 44 19 24 1016.5 1016.4 0.0
12/04:36pm 20.6 12.5 1.0 27 8.9 SSW 33 52 18 28 1016.2 1016.1 0.0
12/04:30pm 20.8 12.7 1.1 27 8.9 SSW 33 50 18 27 1016.2 1016.1 0.0
12/04:14pm 20.5 12.6 0.9 27 8.9 SSW 32 50 17 27 1016.1 1016.0 0.0
12/04:00pm 20.8 12.9 1.1 27 9.0 SSW 32 48 17 26 1016.0 1015.9 0.0
12/03:30pm 20.5 12.4 0.9 27 8.8 SW 33 54 18 29 1016.0 1015.9 0.0
12/03:00pm 21.6 14.2 1.8 27 9.2 SW 30 52 16 28 1015.9 1015.8 0.0
12/02:39pm 20.7 12.3 1.6 28 8.8 SSW 35 54 19 29 1015.9 1015.8 0.0
12/02:30pm 20.7 12.9 1.6 28 8.8 SSW 32 46 17 25 1015.9 1015.8 0.0
12/02:10pm 20.1 12.0 1.0 28 8.6 SW 33 52 18 28 1016.0 1015.9 0.0
12/02:00pm 20.1 11.6 1.0 28 8.6 SW 35 48 19 26 1016.0 1015.9 0.0
12/01:33pm 20.0 12.2 1.4 29 8.5 SW 32 57 17 31 1016.0 1015.9 0.0
12/01:30pm 19.7 11.9 1.7 30 8.2 SSW 32 44 17 24 1016.2 1016.1 0.0
12/01:00pm 19.1 11.6 3.3 35 7.4 SW 32 52 17 28 1016.3 1016.2 0.0
12/12:40pm 19.8 11.9 2.2 31 8.1 SW 33 52 18 28 1016.1 1016.0 0.0
12/12:30pm 19.9 12.0 2.3 31 8.1 SW 33 50 18 27 1016.2 1016.1 0.0
12/12:11pm 18.9 10.9 1.4 31 7.9 SW 33 52 18 28 1016.2 1016.1 0.0
12/12:00pm 18.9 10.5 1.4 31 7.9 SW 35 46 19 25 1016.2 1016.1 0.0
12/11:30am 18.1 10.7 1.6 33 7.4 SW 30 43 16 23 1016.3 1016.2 0.0
12/11:02am 17.2 9.4 2.8 38 6.6 SW 33 52 18 28 1016.4 1016.3 0.0
12/11:00am 16.9 8.7 2.5 38 6.5 SW 35 52 19 28 1016.3 1016.2 0.0
12/10:31am 16.8 10.0 3.1 40 6.3 SW 28 48 15 26 1016.1 1016.0 0.0
12/10:30am 16.8 9.2 2.8 39 6.4 SW 32 48 17 26 1016.1 1016.0 0.0
12/10:09am 15.5 8.0 3.6 45 5.5 SW 32 50 17 27 1016.1 1016.0 0.0
12/10:00am 16.3 9.6 3.4 42 5.9 SSW 28 44 15 24 1016.0 1015.9 0.0
12/09:30am 15.9 8.4 3.7 44 5.6 SSW 32 48 17 26 1015.7 1015.6 0.0
12/09:00am 15.4 7.3 3.5 45 5.4 SSW 35 50 19 27 1015.5 1015.4 0.0
12/08:30am 14.8 8.4 5.3 53 4.5 SSW 28 41 15 22 1015.2 1015.2 0.0
12/08:00am 13.6 7.6 5.3 57 3.9 SW 26 41 14 22 1014.8 1014.8 0.0
12/07:30am 13.3 8.4 5.0 57 3.9 SSW 20 30 11 16 1014.3 1014.2 0.0
12/07:00am 12.9 7.9 4.8 58 3.7 SW 20 32 11 17 1013.7 1013.6 0.0
12/06:30am 12.4 7.1 5.1 61 3.4 SSW 22 33 12 18 1013.0 1012.9 0.0
12/06:00am 12.4 7.1 4.9 60 3.4 SSW 22 30 12 16 1012.6 1012.5 0.0
12/05:30am 12.6 6.9 5.1 60 3.5 SSW 24 41 13 22 1012.0 1011.9 0.0
12/05:01am 13.2 6.0 5.1 58 3.8 SSW 32 50 17 27 1011.4 1011.3 0.0
12/05:00am 13.2 5.8 5.1 58 3.8 SSW 33 50 18 27 1011.4 1011.3 0.0
12/04:37am 14.1 7.3 6.9 62 3.5 SW 32 50 17 27 1010.7 1010.6 0.0
12/04:30am 14.2 7.4 7.5 64 3.3 SW 33 48 18 26 1010.5 1010.4 0.0
12/04:00am 14.6 7.9 8.3 66 3.2 SW 33 46 18 25 1010.2 1010.1 0.0
12/03:30am 14.9 8.1 9.1 68 3.0 SW 35 54 19 29 1010.0 1009.9 0.0
12/03:14am 15.2 8.9 9.6 69 2.9 SW 33 54 18 29 1009.8 1009.7 0.0
12/03:00am 15.6 8.9 9.7 68 3.1 SW 35 50 19 27 1009.5 1009.4 0.0
12/02:30am 16.1 10.6 10.4 69 3.0 SW 30 48 16 26 1008.9 1008.8 0.0
12/02:07am 16.3 11.1 10.4 68 3.1 SW 28 46 15 25 1008.4 1008.3 0.0
12/02:00am 16.4 12.1 10.7 69 3.0 SW 24 39 13 21 1008.4 1008.3 0.0
12/01:30am 17.3 11.9 10.9 66 3.5 SW 30 41 16 22 1007.7 1007.6 0.0
12/01:00am 19.1 11.2 9.3 53 5.2 SW 41 59 22 32 1006.8 1006.7 0.0
12/12:44am 21.5 13.3 6.6 38 7.6 SW 39 63 21 34 1005.9 1005.8 0.0
12/12:40am 23.3 15.1 4.8 30 9.2 SW 37 57 20 31 1005.7 1005.6 0.0
12/12:30am 26.8 18.1 -0.3 17 12.6 WSW 35 54 19 29 1005.3 1005.2 0.0
12/12:14am 29.3 21.7 -10.0 7 15.7 WNW 24 52 13 28 1004.7 1004.6 0.0
12/12:00am 27.8 21.6 -9.4 8 14.8 NW 17 22 9 12 1004.3 1004.2 0.0
 
Date/Time
CDT
Temp
°C
App
Temp
°C
Dew
Point
°C
Rel
Hum
%
Delta-T
°C
Wind Press
QNH
hPa
Press
MSL
hPa
Rain since
9am
mm
Dir  Spd
km/h
Gust
km/h
Spd
kts
Gust
kts
11/11:30pm 29.4 22.6 -9.9 7 15.8 NNW 20 26 11 14 1004.0 1003.9 0.0
11/11:00pm 29.6 22.4 -9.8 7 15.8 NNW 22 32 12 17 1004.1 1004.0 0.0
11/10:30pm 29.7 22.5 -9.7 7 15.9 NNW 22 30 12 16 1004.0 1003.9 0.0
11/10:00pm 28.3 22.8 -9.1 8 15.0 NNW 13 17 7 9 1004.5 1004.4 0.0
11/09:30pm 28.7 22.5 -8.8 8 15.2 NW 17 20 9 11 1004.5 1004.4 0.0
11/09:00pm 28.8 23.0 -8.7 8 15.3 NW 15 19 8 10 1004.3 1004.2 0.0
11/08:30pm 29.8 23.9 -9.7 7 16.0 NNW 15 19 8 10 1004.2 1004.1 0.0
11/08:00pm 30.1 24.4 -7.7 8 15.8 NW 15 19 8 10 1004.3 1004.2 0.0
11/07:30pm 32.3 25.8 -7.8 7 17.1 NNW 19 28 10 15 1004.1 1004.0 0.0
11/07:00pm 33.3 25.8 -9.1 6 17.8 NW 24 35 13 19 1004.2 1004.1 0.0
11/06:30pm 34.1 25.1 -8.5 6 18.3 NW 32 41 17 22 1004.1 1004.0 0.0
11/06:16pm 34.5 26.1 -10.6 5 18.7 NW 28 48 15 26 1004.3 1004.2 0.0
11/06:00pm 34.5 25.9 -8.2 6 18.5 NW 30 41 16 22 1004.5 1004.4 0.0
11/05:38pm 34.9 25.9 -8.0 6 18.6 NNW 32 46 17 25 1004.7 1004.6 0.0
11/05:30pm 34.8 26.2 -8.0 6 18.6 NNW 30 46 16 25 1004.8 1004.7 0.0
11/05:00pm 35.0 25.5 -7.9 6 18.7 NW 35 54 19 29 1005.2 1005.1 0.0
11/04:55pm 34.8 26.2 -8.0 6 18.5 NW 30 54 16 29 1005.2 1005.1 0.0
11/04:30pm 34.8 25.8 -8.0 6 18.6 NW 32 46 17 25 1005.6 1005.5 0.0
11/04:15pm 35.1 25.6 -7.8 6 18.7 WNW 35 48 19 26 1005.7 1005.6 0.0
11/04:08pm 35.2 26.3 -7.7 6 18.7 NW 32 46 17 25 1005.7 1005.6 0.0
11/04:02pm 35.4 27.2 -7.6 6 18.8 NW 28 46 15 25 1005.9 1005.8 0.0
11/04:00pm 34.7 26.5 -8.1 6 18.5 NNW 28 41 15 22 1005.8 1005.7 0.0
11/03:49pm 34.8 25.8 -8.0 6 18.5 NNW 32 50 17 27 1006.0 1005.9 0.0
11/03:30pm 34.6 26.4 -8.2 6 18.5 NW 28 43 15 23 1006.5 1006.4 0.0
11/03:17pm 34.7 26.5 -8.1 6 18.5 NW 28 43 15 23 1006.7 1006.6 0.0
11/03:03pm 34.4 26.3 -6.3 7 18.1 NNW 28 46 15 25 1007.1 1007.0 0.0
11/03:00pm 34.1 26.0 -6.5 7 18.0 NNW 28 43 15 23 1007.1 1007.0 0.0
11/02:30pm 34.5 26.4 -6.3 7 18.2 NW 28 43 15 23 1007.7 1007.6 0.0
11/02:01pm 32.8 24.2 -7.5 7 17.3 NW 30 48 16 26 1008.4 1008.3 0.0
11/02:00pm 32.6 23.7 -7.6 7 17.2 NW 32 48 17 26 1008.5 1008.4 0.0
11/01:37pm 32.9 24.7 -7.4 7 17.4 WNW 28 48 15 26 1008.8 1008.7 0.0
11/01:30pm 32.8 24.4 -5.7 8 17.1 WNW 30 44 16 24 1009.0 1008.9 0.0
11/01:00pm 32.3 24.3 -6.1 8 16.8 NW 28 44 15 24 1009.5 1009.4 0.0
11/12:40pm 31.6 23.7 -5.1 9 16.3 NW 28 46 15 25 1010.0 1009.9 0.0
11/12:30pm 31.5 23.6 -5.2 9 16.2 NW 28 39 15 21 1010.2 1010.1 0.0
11/12:00pm 30.8 22.0 -5.7 9 15.9 NW 32 43 17 23 1010.8 1010.7 0.0
11/11:30am 29.8 20.8 -8.0 8 15.7 NW 32 43 17 23 1011.3 1011.2 0.0
11/11:00am 29.2 20.3 -6.9 9 15.2 NW 32 46 17 25 1011.7 1011.6 0.0
11/10:30am 28.7 20.2 -3.5 12 14.3 NW 32 44 17 24 1012.3 1012.2 0.0
11/10:00am 27.1 18.9 -3.7 13 13.5 NW 30 41 16 22 1012.5 1012.4 0.0
11/09:30am 26.0 19.1 -2.6 15 12.7 NNW 24 32 13 17 1012.8 1012.7 0.0
11/09:00am 24.8 18.5 -1.1 18 11.7 NW 22 30 12 16 1013.1 1013.0 0.0
11/08:30am 23.7 17.3 -2.0 18 11.3 NW 22 35 12 19 1013.0 1012.9 0.0
11/08:00am 21.2 15.3 -0.7 23 9.6 N 20 28 11 15 1012.8 1012.7 0.0
11/07:30am 18.5 12.9 0.2 29 8.0 N 19 24 10 13 1012.6 1012.5 0.0
11/07:00am 17.7 11.5 -0.1 30 7.7 N 22 32 12 17 1012.7 1012.6 0.0
11/06:30am 16.2 9.6 -0.1 33 7.0 N 24 32 13 17 1012.7 1012.6 0.0
11/06:00am 14.7 9.6 0.5 38 6.1 N 17 20 9 11 1012.6 1012.5 0.0
11/05:30am 12.3 9.4 2.5 51 4.3 NNE 7 9 4 5 1012.6 1012.5 0.0
11/05:00am 11.0 8.4 4.2 63 3.0 NNE 7 11 4 6 1012.6 1012.5 0.0
11/04:30am 9.4 7.8 2.5 62 2.9 CALM 0 0 0 0 1013.1 1013.0 0.0
11/04:00am 9.4 6.7 2.7 63 2.9 N 6 7 3 4 1013.3 1013.2 0.0
11/03:30am 9.6 8.0 2.2 60 3.1 CALM 0 0 0 0 1013.6 1013.5 0.0
11/03:00am 9.9 7.9 2.3 59 3.2 WNW 2 6 1 3 1013.7 1013.6 0.0
11/02:30am 10.1 8.5 2.5 59 3.2 CALM 0 0 0 0 1014.0 1013.9 0.0
11/02:00am 11.2 9.7 2.8 56 3.6 CALM 0 0 0 0 1014.3 1014.2 0.0
11/01:30am 11.5 9.9 2.5 54 3.9 CALM 0 0 0 0 1014.6 1014.6 0.0
11/01:00am 11.7 9.4 2.7 54 3.9 SW 4 7 2 4 1014.9 1014.9 0.0
11/12:30am 13.3 10.4 2.8 49 4.6 WNW 7 9 4 5 1015.2 1015.2 0.0
11/12:00am 13.3 10.3 1.9 46 4.9 WSW 7 9 4 5 1015.6 1015.5 0.0
 
Date/Time
CDT
Temp
°C
App
Temp
°C
Dew
Point
°C
Rel
Hum
%
Delta-T
°C
Wind Press
QNH
hPa
Press
MSL
hPa
Rain since
9am
mm
Dir  Spd
km/h
Gust
km/h
Spd
kts
Gust
kts
10/11:30pm 14.4 11.4 2.0 43 5.4 W 7 9 4 5 1015.8 1015.7 0.0
10/11:00pm 15.1 12.3 2.3 42 5.7 SW 6 7 3 4 1015.9 1015.8 0.0
10/10:30pm 14.9 12.9 2.4 43 5.6 WSW 2 6 1 3 1015.9 1015.8 0.0
10/10:00pm 15.4 12.6 1.9 40 6.0 WSW 6 6 3 3 1015.9 1015.8 0.0
10/09:30pm 16.5 14.9 2.2 38 6.4 CALM 0 0 0 0 1015.7 1015.6 0.0
10/09:00pm 18.5 16.2 2.8 35 7.2 E 4 6 2 3 1015.5 1015.4 0.0
10/08:30pm 20.1 17.1 2.0 30 8.3 ESE 7 11 4 6 1015.3 1015.3 0.0
10/08:00pm 22.3 20.1 0.8 24 9.8 WSW 2 6 1 3 1015.3 1015.3 0.0
10/07:30pm 24.1 20.8 0.4 21 10.9 WSW 7 9 4 5 1015.5 1015.4 0.0
10/07:00pm 24.8 20.7 -0.4 19 11.5 WNW 11 17 6 9 1015.3 1015.3 0.0
10/06:30pm 25.0 20.5 -0.2 19 11.6 W 13 20 7 11 1015.3 1015.3 0.0
10/06:00pm 25.3 21.6 0.0 19 11.7 W 9 19 5 10 1015.5 1015.4 0.0
10/05:30pm 24.8 20.0 0.3 20 11.3 W 15 28 8 15 1015.6 1015.5 0.0
10/05:00pm 24.9 20.2 1.1 21 11.2 WSW 15 20 8 11 1015.8 1015.7 0.0
10/04:30pm 24.7 20.1 1.6 22 10.9 WSW 15 26 8 14 1016.0 1015.9 0.0
10/04:00pm 25.1 20.7 2.5 23 10.9 WNW 15 24 8 13 1016.2 1016.1 0.0
10/03:30pm 24.0 21.0 2.2 24 10.4 NW 7 13 4 7 1016.7 1016.6 0.0
10/03:00pm 23.4 20.2 2.8 26 9.9 W 9 20 5 11 1017.2 1017.1 0.0
10/02:30pm 23.0 18.4 3.5 28 9.4 W 17 28 9 15 1018.0 1017.9 0.0
10/02:00pm 22.2 18.9 4.3 31 8.8 S 11 26 6 14 1018.5 1018.4 0.0
10/01:30pm 22.3 17.8 4.4 31 8.8 W 17 28 9 15 1019.0 1018.9 0.0
10/01:00pm 21.5 18.3 5.0 34 8.1 NW 11 26 6 14 1019.5 1019.4 0.0
10/12:30pm 20.6 17.5 5.4 37 7.5 WNW 11 22 6 12 1019.8 1019.7 0.0
10/12:00pm 19.4 15.7 4.7 38 7.1 SSW 13 22 7 12 1020.4 1020.3 0.0
10/11:30am 18.7 15.1 4.8 40 6.7 SSW 13 22 7 12 1020.9 1020.8 0.0
10/11:00am 18.3 15.6 5.8 44 6.1 SW 9 20 5 11 1021.1 1021.0 0.0
10/10:30am 17.0 13.5 5.3 46 5.6 SW 13 20 7 11 1021.4 1021.3 0.0
10/10:00am 16.8 13.0 6.0 49 5.3 SSW 15 22 8 12 1021.6 1021.5 0.0
10/09:30am 15.5 11.7 5.7 52 4.7 SSW 15 22 8 12 1021.8 1021.7 0.0
10/09:00am 15.0 11.2 5.8 54 4.4 SSW 15 22 8 12 1021.8 1021.7 0.0
10/08:30am 14.8 11.1 6.1 56 4.2 SSW 15 22 8 12 1021.7 1021.6 0.0
10/08:00am 14.7 10.5 5.8 55 4.2 SSW 17 26 9 14 1021.3 1021.2 0.0
10/07:30am 13.7 9.9 5.8 59 3.7 SW 15 22 8 12 1020.9 1020.8 0.0
10/07:00am 13.5 10.5 5.9 60 3.6 SW 11 17 6 9 1020.8 1020.7 0.0
10/06:30am 13.3 8.6 5.9 61 3.5 SSW 20 26 11 14 1020.5 1020.4 0.0
10/06:00am 13.1 8.3 5.8 61 3.4 SSW 20 26 11 14 1020.4 1020.3 0.0
10/05:30am 13.0 8.4 5.4 60 3.5 SW 19 28 10 15 1020.2 1020.1 0.0
10/05:00am 13.2 8.7 5.9 61 3.5 SW 19 26 10 14 1019.9 1019.8 0.0

Other formats

Comma delimited format used in spreadsheet applications
http://www.bom.gov.au/fwo/IDS60801/IDS60801.95687.axf

JavaScript Object Notation format (JSON) in row-major order
http://www.bom.gov.au/fwo/IDS60801/IDS60801.95687.json

Data quality

Most of these data are generated automatically and are frequently updated. Quality checks on data are not normally performed. It is possible for incorrect values to appear. Refer to information at About Latest Weather Observations and please check the disclaimer before using these data.